sensor_id;sensor_type;location;lat;lon;timestamp;pressure;altitude;pressure_sealevel;temperature;humidity
64711;BME280;51139;45.626;6.850;2023-04-19T00:00:04;81996.31;;;3.11;54.33
64711;BME280;51139;45.626;6.850;2023-04-19T00:02:33;81995.31;;;3.01;53.96
64711;BME280;51139;45.626;6.850;2023-04-19T00:04:59;81993.56;;;2.82;54.39
64711;BME280;51139;45.626;6.850;2023-04-19T00:07:24;81988.91;;;2.88;54.59
64711;BME280;51139;45.626;6.850;2023-04-19T00:09:50;81985.53;;;3.15;54.19
64711;BME280;51139;45.626;6.850;2023-04-19T00:12:15;81987.72;;;2.89;55.08
64711;BME280;51139;45.626;6.850;2023-04-19T00:14:41;81992.91;;;3.03;54.04
64711;BME280;51139;45.626;6.850;2023-04-19T00:17:06;81985.81;;;3.46;51.63
64711;BME280;51139;45.626;6.850;2023-04-19T00:19:31;81980.75;;;3.27;53.53
64711;BME280;51139;45.626;6.850;2023-04-19T00:21:57;81985.81;;;3.46;54.31
64711;BME280;51139;45.626;6.850;2023-04-19T00:24:22;81983.44;;;3.56;53.89
64711;BME280;51139;45.626;6.850;2023-04-19T00:26:48;81981.28;;;3.46;54.52
64711;BME280;51139;45.626;6.850;2023-04-19T00:29:13;81984.06;;;3.27;54.56
64711;BME280;51139;45.626;6.850;2023-04-19T00:31:38;81982.63;;;3.82;51.34
64711;BME280;51139;45.626;6.850;2023-04-19T00:34:04;81978.59;;;3.81;51.46
64711;BME280;51139;45.626;6.850;2023-04-19T00:36:30;81979.25;;;3.53;52.47
64711;BME280;51139;45.626;6.850;2023-04-19T00:38:55;81983.75;;;3.52;51.45
64711;BME280;51139;45.626;6.850;2023-04-19T00:41:21;81972.53;;;3.23;53.97
64711;BME280;51139;45.626;6.850;2023-04-19T00:43:46;81974.72;;;2.97;54.28
64711;BME280;51139;45.626;6.850;2023-04-19T00:46:13;81971.47;;;3.04;54.98
64711;BME280;51139;45.626;6.850;2023-04-19T00:48:39;81971.22;;;2.81;55.07
64711;BME280;51139;45.626;6.850;2023-04-19T00:51:05;81974.19;;;2.99;55.76
64711;BME280;51139;45.626;6.850;2023-04-19T00:53:30;81967.91;;;3.15;54.46
64711;BME280;51139;45.626;6.850;2023-04-19T00:55:56;81969.66;;;3.34;53.66
64711;BME280;51139;45.626;6.850;2023-04-19T00:58:24;81977.69;;;3.78;51.13
64711;BME280;51139;45.626;6.850;2023-04-19T01:00:52;81971.00;;;3.48;52.55
64711;BME280;51139;45.626;6.850;2023-04-19T01:03:17;81970.00;;;3.80;50.83
64711;BME280;51139;45.626;6.850;2023-04-19T01:05:44;81974.88;;;3.34;51.87
64711;BME280;51139;45.626;6.850;2023-04-19T01:08:09;81969.06;;;3.06;52.66
64711;BME280;51139;45.626;6.850;2023-04-19T01:10:35;81962.50;;;2.79;53.97
64711;BME280;51139;45.626;6.850;2023-04-19T01:13:00;81965.28;;;2.94;53.33
64711;BME280;51139;45.626;6.850;2023-04-19T01:15:25;81961.09;;;2.99;52.94
64711;BME280;51139;45.626;6.850;2023-04-19T01:17:51;81960.03;;;2.94;53.59
64711;BME280;51139;45.626;6.850;2023-04-19T01:20:16;81958.09;;;2.95;53.21
64711;BME280;51139;45.626;6.850;2023-04-19T01:22:42;81951.63;;;2.74;53.71
64711;BME280;51139;45.626;6.850;2023-04-19T01:25:07;81950.88;;;2.87;53.86
64711;BME280;51139;45.626;6.850;2023-04-19T01:27:33;81950.78;;;2.93;53.99
64711;BME280;51139;45.626;6.850;2023-04-19T01:29:59;81939.03;;;3.08;53.99
64711;BME280;51139;45.626;6.850;2023-04-19T01:32:24;81949.97;;;3.19;51.81
64711;BME280;51139;45.626;6.850;2023-04-19T01:34:51;81948.56;;;3.18;51.47
64711;BME280;51139;45.626;6.850;2023-04-19T01:37:17;81944.94;;;3.21;51.13
64711;BME280;51139;45.626;6.850;2023-04-19T01:39:42;81944.03;;;3.19;50.11
64711;BME280;51139;45.626;6.850;2023-04-19T01:42:07;81938.03;;;3.32;51.17
64711;BME280;51139;45.626;6.850;2023-04-19T01:44:33;81937.13;;;2.87;52.04
64711;BME280;51139;45.626;6.850;2023-04-19T01:46:58;81944.16;;;3.34;49.29
64711;BME280;51139;45.626;6.850;2023-04-19T01:49:24;81936.00;;;3.59;48.31
64711;BME280;51139;45.626;6.850;2023-04-19T01:51:49;81935.81;;;3.36;48.04
64711;BME280;51139;45.626;6.850;2023-04-19T01:54:15;81930.53;;;2.94;50.28
64711;BME280;51139;45.626;6.850;2023-04-19T01:56:40;81922.69;;;2.94;51.28
64711;BME280;51139;45.626;6.850;2023-04-19T01:59:05;81928.50;;;2.79;51.85
64711;BME280;51139;45.626;6.850;2023-04-19T02:01:31;81929.50;;;2.75;51.88
64711;BME280;51139;45.626;6.850;2023-04-19T02:03:56;81933.03;;;2.65;52.42
64711;BME280;51139;45.626;6.850;2023-04-19T02:06:22;81926.31;;;2.56;52.47
64711;BME280;51139;45.626;6.850;2023-04-19T02:08:47;81924.13;;;3.16;50.42
64711;BME280;51139;45.626;6.850;2023-04-19T02:11:13;81934.41;;;3.35;50.10
64711;BME280;51139;45.626;6.850;2023-04-19T02:13:41;81925.47;;;2.74;51.68
64711;BME280;51139;45.626;6.850;2023-04-19T02:16:07;81933.56;;;2.50;52.28
64711;BME280;51139;45.626;6.850;2023-04-19T02:18:34;81933.16;;;2.59;52.35
64711;BME280;51139;45.626;6.850;2023-04-19T02:21:07;81923.13;;;2.50;52.59
64711;BME280;51139;45.626;6.850;2023-04-19T02:23:33;81926.75;;;2.46;52.20
64711;BME280;51139;45.626;6.850;2023-04-19T02:25:59;81926.28;;;2.35;52.66
64711;BME280;51139;45.626;6.850;2023-04-19T02:28:29;81930.06;;;2.47;52.12
64711;BME280;51139;45.626;6.850;2023-04-19T02:30:54;81931.41;;;2.27;52.85
64711;BME280;51139;45.626;6.850;2023-04-19T02:33:21;81934.50;;;2.52;53.01
64711;BME280;51139;45.626;6.850;2023-04-19T02:35:46;81927.84;;;2.51;51.83
64711;BME280;51139;45.626;6.850;2023-04-19T02:38:11;81925.88;;;2.30;52.68
64711;BME280;51139;45.626;6.850;2023-04-19T02:40:37;81925.50;;;2.26;52.49
64711;BME280;51139;45.626;6.850;2023-04-19T02:43:02;81919.25;;;2.29;52.56
64711;BME280;51139;45.626;6.850;2023-04-19T02:45:28;81923.34;;;2.38;52.27
64711;BME280;51139;45.626;6.850;2023-04-19T02:47:53;81921.63;;;2.41;52.04
64711;BME280;51139;45.626;6.850;2023-04-19T02:50:19;81922.44;;;2.36;51.98
64711;BME280;51139;45.626;6.850;2023-04-19T02:52:44;81924.06;;;2.73;50.19
64711;BME280;51139;45.626;6.850;2023-04-19T02:55:10;81925.69;;;2.98;49.75
64711;BME280;51139;45.626;6.850;2023-04-19T02:57:35;81919.84;;;2.36;51.16
64711;BME280;51139;45.626;6.850;2023-04-19T03:00:00;81922.28;;;2.55;51.19
64711;BME280;51139;45.626;6.850;2023-04-19T03:02:26;81927.84;;;2.51;51.31
64711;BME280;51139;45.626;6.850;2023-04-19T03:04:51;81924.06;;;2.39;51.52
64711;BME280;51139;45.626;6.850;2023-04-19T03:07:19;81918.78;;;2.52;50.71
64711;BME280;51139;45.626;6.850;2023-04-19T03:09:45;81920.22;;;2.40;51.47
64711;BME280;51139;45.626;6.850;2023-04-19T03:12:10;81921.88;;;2.29;51.37
64711;BME280;51139;45.626;6.850;2023-04-19T03:14:36;81920.06;;;2.59;51.25
64711;BME280;51139;45.626;6.850;2023-04-19T03:17:02;81918.72;;;2.31;52.12
64711;BME280;51139;45.626;6.850;2023-04-19T03:19:27;81916.84;;;2.31;51.20
64711;BME280;51139;45.626;6.850;2023-04-19T03:21:53;81918.13;;;2.38;51.80
64711;BME280;51139;45.626;6.850;2023-04-19T03:24:18;81926.41;;;2.63;50.42
64711;BME280;51139;45.626;6.850;2023-04-19T03:26:44;81918.41;;;2.83;49.85
64711;BME280;51139;45.626;6.850;2023-04-19T03:29:10;81918.53;;;2.77;50.09
64711;BME280;51139;45.626;6.850;2023-04-19T03:31:36;81922.03;;;2.45;51.20
64711;BME280;51139;45.626;6.850;2023-04-19T03:34:01;81913.38;;;2.50;51.53
64711;BME280;51139;45.626;6.850;2023-04-19T03:36:27;81919.06;;;2.27;52.76
64711;BME280;51139;45.626;6.850;2023-04-19T03:38:52;81917.44;;;2.11;52.77
64711;BME280;51139;45.626;6.850;2023-04-19T03:41:25;81918.44;;;2.35;52.25
64711;BME280;51139;45.626;6.850;2023-04-19T03:43:50;81916.81;;;2.45;51.96
64711;BME280;51139;45.626;6.850;2023-04-19T03:46:16;81917.66;;;2.13;52.68
64711;BME280;51139;45.626;6.850;2023-04-19T03:48:41;81911.94;;;2.01;53.30
64711;BME280;51139;45.626;6.850;2023-04-19T03:51:07;81907.31;;;1.94;53.41
64711;BME280;51139;45.626;6.850;2023-04-19T03:53:32;81914.53;;;2.14;53.05
64711;BME280;51139;45.626;6.850;2023-04-19T03:55:58;81912.63;;;2.01;53.56
64711;BME280;51139;45.626;6.850;2023-04-19T03:58:23;81902.59;;;1.92;53.27
64711;BME280;51139;45.626;6.850;2023-04-19T04:00:48;81908.22;;;1.96;52.61
64711;BME280;51139;45.626;6.850;2023-04-19T04:03:14;81913.81;;;2.14;51.52
64711;BME280;51139;45.626;6.850;2023-04-19T04:05:40;81909.81;;;2.13;52.09
64711;BME280;51139;45.626;6.850;2023-04-19T04:08:05;81911.00;;;2.12;52.15
64711;BME280;51139;45.626;6.850;2023-04-19T04:10:31;81902.88;;;2.15;51.69
64711;BME280;51139;45.626;6.850;2023-04-19T04:12:56;81908.00;;;2.21;52.09
64711;BME280;51139;45.626;6.850;2023-04-19T04:15:21;81903.81;;;1.91;53.57
64711;BME280;51139;45.626;6.850;2023-04-19T04:17:47;81907.41;;;2.01;52.70
64711;BME280;51139;45.626;6.850;2023-04-19T04:20:12;81905.50;;;2.02;51.87
64711;BME280;51139;45.626;6.850;2023-04-19T04:22:42;81906.19;;;2.02;52.68
64711;BME280;51139;45.626;6.850;2023-04-19T04:25:08;81906.56;;;2.20;51.69
64711;BME280;51139;45.626;6.850;2023-04-19T04:27:34;81902.78;;;2.21;51.60
64711;BME280;51139;45.626;6.850;2023-04-19T04:30:00;81904.06;;;2.28;51.92
64711;BME280;51139;45.626;6.850;2023-04-19T04:32:26;81900.94;;;2.16;52.41
64711;BME280;51139;45.626;6.850;2023-04-19T04:34:51;81910.53;;;2.13;51.88
64711;BME280;51139;45.626;6.850;2023-04-19T04:37:16;81905.78;;;2.12;51.77
64711;BME280;51139;45.626;6.850;2023-04-19T04:39:42;81898.34;;;2.16;52.31
64711;BME280;51139;45.626;6.850;2023-04-19T04:42:07;81904.56;;;2.26;52.17
64711;BME280;51139;45.626;6.850;2023-04-19T04:44:35;81912.13;;;2.03;52.54
64711;BME280;51139;45.626;6.850;2023-04-19T04:47:02;81903.31;;;1.93;53.25
64711;BME280;51139;45.626;6.850;2023-04-19T04:49:28;81909.03;;;1.91;53.42
64711;BME280;51139;45.626;6.850;2023-04-19T04:51:54;81907.72;;;1.98;53.14
64711;BME280;51139;45.626;6.850;2023-04-19T04:54:20;81906.63;;;1.93;53.52
64711;BME280;51139;45.626;6.850;2023-04-19T04:56:45;81905.91;;;1.93;53.74
64711;BME280;51139;45.626;6.850;2023-04-19T04:59:10;81904.09;;;2.14;53.53
64711;BME280;51139;45.626;6.850;2023-04-19T05:01:36;81907.31;;;2.55;52.31
64711;BME280;51139;45.626;6.850;2023-04-19T05:04:01;81915.94;;;2.63;51.21
64711;BME280;51139;45.626;6.850;2023-04-19T05:06:27;81910.44;;;2.54;51.22
64711;BME280;51139;45.626;6.850;2023-04-19T05:08:53;81915.41;;;2.79;51.05
64711;BME280;51139;45.626;6.850;2023-04-19T05:11:19;81916.28;;;3.37;49.74
64711;BME280;51139;45.626;6.850;2023-04-19T05:13:45;81918.31;;;3.10;49.94
64711;BME280;51139;45.626;6.850;2023-04-19T05:16:10;81918.28;;;2.54;52.32
64711;BME280;51139;45.626;6.850;2023-04-19T05:18:35;81909.81;;;1.99;53.48
64711;BME280;51139;45.626;6.850;2023-04-19T05:21:01;81917.75;;;2.07;53.56
64711;BME280;51139;45.626;6.850;2023-04-19T05:23:26;81920.28;;;1.99;54.14
64711;BME280;51139;45.626;6.850;2023-04-19T05:25:51;81921.69;;;1.87;54.67
64711;BME280;51139;45.626;6.850;2023-04-19T05:28:17;81913.44;;;1.96;54.43
64711;BME280;51139;45.626;6.850;2023-04-19T05:30:42;81924.38;;;2.22;52.71
64711;BME280;51139;45.626;6.850;2023-04-19T05:33:08;81921.41;;;2.87;50.83
64711;BME280;51139;45.626;6.850;2023-04-19T05:35:33;81915.56;;;2.94;50.27
64711;BME280;51139;45.626;6.850;2023-04-19T05:37:58;81923.16;;;2.36;52.88
64711;BME280;51139;45.626;6.850;2023-04-19T05:40:24;81923.59;;;2.13;53.54
64711;BME280;51139;45.626;6.850;2023-04-19T05:42:49;81921.56;;;2.19;53.33
64711;BME280;51139;45.626;6.850;2023-04-19T05:45:15;81925.69;;;2.28;52.75
64711;BME280;51139;45.626;6.850;2023-04-19T05:47:42;81922.69;;;2.24;52.25
64711;BME280;51139;45.626;6.850;2023-04-19T05:50:08;81925.69;;;2.28;52.57
64711;BME280;51139;45.626;6.850;2023-04-19T05:52:33;81918.28;;;2.54;51.39
64711;BME280;51139;45.626;6.850;2023-04-19T05:54:59;81925.41;;;2.67;50.99
64711;BME280;51139;45.626;6.850;2023-04-19T05:57:24;81921.84;;;2.77;50.59
64711;BME280;51139;45.626;6.850;2023-04-19T05:59:50;81919.22;;;3.12;50.04
64711;BME280;51139;45.626;6.850;2023-04-19T06:02:15;81927.38;;;3.30;49.69
64711;BME280;51139;45.626;6.850;2023-04-19T06:04:41;81926.22;;;3.39;49.10
64711;BME280;51139;45.626;6.850;2023-04-19T06:07:06;81924.50;;;3.62;49.33
64711;BME280;51139;45.626;6.850;2023-04-19T06:09:32;81923.84;;;3.99;48.22
64711;BME280;51139;45.626;6.850;2023-04-19T06:11:57;81932.16;;;4.11;47.68
64711;BME280;51139;45.626;6.850;2023-04-19T06:14:23;81930.06;;;4.17;47.48
64711;BME280;51139;45.626;6.850;2023-04-19T06:16:49;81920.94;;;4.47;47.47
64711;BME280;51139;45.626;6.850;2023-04-19T06:19:16;81922.94;;;4.62;46.85
64711;BME280;51139;45.626;6.850;2023-04-19T06:21:42;81928.31;;;4.19;47.92
64711;BME280;51139;45.626;6.850;2023-04-19T06:24:07;81924.91;;;3.74;49.62
64711;BME280;51139;45.626;6.850;2023-04-19T06:26:32;81929.47;;;3.31;50.78
64711;BME280;51139;45.626;6.850;2023-04-19T06:28:58;81925.91;;;3.21;51.10
64711;BME280;51139;45.626;6.850;2023-04-19T06:31:23;81928.84;;;3.39;49.81
64711;BME280;51139;45.626;6.850;2023-04-19T06:33:49;81922.75;;;5.12;46.59
64711;BME280;51139;45.626;6.850;2023-04-19T06:36:14;81927.31;;;5.19;46.07
64711;BME280;51139;45.626;6.850;2023-04-19T06:38:40;81926.03;;;4.97;47.34
64711;BME280;51139;45.626;6.850;2023-04-19T06:41:06;81929.63;;;5.46;46.53
64711;BME280;51139;45.626;6.850;2023-04-19T06:43:31;81920.75;;;6.11;46.76
64711;BME280;51139;45.626;6.850;2023-04-19T06:46:01;81921.63;;;6.30;44.80
64711;BME280;51139;45.626;6.850;2023-04-19T06:48:26;81925.44;;;5.74;45.96
64711;BME280;51139;45.626;6.850;2023-04-19T06:50:53;81911.53;;;6.59;44.15
64711;BME280;51139;45.626;6.850;2023-04-19T06:53:18;81905.25;;;7.03;42.19
64711;BME280;51139;45.626;6.850;2023-04-19T06:55:44;81904.25;;;7.65;40.65
64711;BME280;51139;45.626;6.850;2023-04-19T06:58:10;81919.31;;;7.97;40.82
64711;BME280;51139;45.626;6.850;2023-04-19T07:00:36;81914.66;;;7.55;43.55
64711;BME280;51139;45.626;6.850;2023-04-19T07:03:01;81913.28;;;7.79;43.66
64711;BME280;51139;45.626;6.850;2023-04-19T07:05:28;81913.03;;;7.93;42.70
64711;BME280;51139;45.626;6.850;2023-04-19T07:07:54;81909.78;;;7.51;42.64
64711;BME280;51139;45.626;6.850;2023-04-19T07:10:19;81908.44;;;7.93;42.33
64711;BME280;51139;45.626;6.850;2023-04-19T07:12:44;81909.50;;;7.90;41.09
64711;BME280;51139;45.626;6.850;2023-04-19T07:15:10;81908.22;;;7.73;41.96
64711;BME280;51139;45.626;6.850;2023-04-19T07:17:37;81906.47;;;8.44;42.65
64711;BME280;51139;45.626;6.850;2023-04-19T07:20:04;81901.53;;;9.01;41.22
64711;BME280;51139;45.626;6.850;2023-04-19T07:22:31;81911.09;;;9.14;40.31
64711;BME280;51139;45.626;6.850;2023-04-19T07:24:57;81907.53;;;9.47;42.44
64711;BME280;51139;45.626;6.850;2023-04-19T07:27:23;81913.84;;;9.79;38.89
64711;BME280;51139;45.626;6.850;2023-04-19T07:29:48;81913.50;;;9.02;41.62
64711;BME280;51139;45.626;6.850;2023-04-19T07:32:13;81913.25;;;9.26;41.40
64711;BME280;51139;45.626;6.850;2023-04-19T07:34:41;81912.69;;;9.45;41.53
64711;BME280;51139;45.626;6.850;2023-04-19T07:37:08;81912.41;;;9.05;42.26
64711;BME280;51139;45.626;6.850;2023-04-19T07:39:33;81917.31;;;9.54;40.04
64711;BME280;51139;45.626;6.850;2023-04-19T07:41:58;81913.78;;;9.42;42.00
64711;BME280;51139;45.626;6.850;2023-04-19T07:44:26;81915.22;;;9.80;40.58
64711;BME280;51139;45.626;6.850;2023-04-19T07:46:51;81915.91;;;9.26;40.71
64711;BME280;51139;45.626;6.850;2023-04-19T07:49:17;81908.50;;;9.24;39.76
64711;BME280;51139;45.626;6.850;2023-04-19T07:51:42;81908.00;;;9.53;41.04
64711;BME280;51139;45.626;6.850;2023-04-19T07:54:07;81917.63;;;9.13;40.05
64711;BME280;51139;45.626;6.850;2023-04-19T07:56:34;81918.56;;;10.08;37.94
64711;BME280;51139;45.626;6.850;2023-04-19T07:59:00;81913.78;;;10.34;39.92
64711;BME280;51139;45.626;6.850;2023-04-19T08:01:25;81920.00;;;9.82;38.58
64711;BME280;51139;45.626;6.850;2023-04-19T08:03:50;81915.84;;;10.26;40.08
64711;BME280;51139;45.626;6.850;2023-04-19T08:06:16;81914.56;;;9.62;39.52
64711;BME280;51139;45.626;6.850;2023-04-19T08:08:42;81918.06;;;10.19;40.28
64711;BME280;51139;45.626;6.850;2023-04-19T08:11:07;81915.22;;;8.90;42.11
64711;BME280;51139;45.626;6.850;2023-04-19T08:13:33;81918.00;;;9.10;43.11
64711;BME280;51139;45.626;6.850;2023-04-19T08:15:59;81921.63;;;9.77;41.28
64711;BME280;51139;45.626;6.850;2023-04-19T08:18:24;81918.19;;;9.84;41.23
64711;BME280;51139;45.626;6.850;2023-04-19T08:20:51;81915.44;;;9.64;42.88
64711;BME280;51139;45.626;6.850;2023-04-19T08:23:16;81915.91;;;10.08;41.09
64711;BME280;51139;45.626;6.850;2023-04-19T08:25:42;81916.41;;;9.97;41.85
64711;BME280;51139;45.626;6.850;2023-04-19T08:28:07;81917.06;;;8.62;44.39
64711;BME280;51139;45.626;6.850;2023-04-19T08:30:33;81913.44;;;8.93;45.21
64711;BME280;51139;45.626;6.850;2023-04-19T08:33:00;81914.13;;;9.11;41.64
64711;BME280;51139;45.626;6.850;2023-04-19T08:35:25;81910.00;;;8.82;44.39
64711;BME280;51139;45.626;6.850;2023-04-19T08:37:51;81911.03;;;9.49;44.28
64711;BME280;51139;45.626;6.850;2023-04-19T08:40:16;81912.84;;;9.74;43.92
64711;BME280;51139;45.626;6.850;2023-04-19T08:42:42;81913.25;;;9.98;45.40
64711;BME280;51139;45.626;6.850;2023-04-19T08:45:08;81915.41;;;8.24;45.15
64711;BME280;51139;45.626;6.850;2023-04-19T08:47:38;81909.75;;;9.23;43.85
64711;BME280;51139;45.626;6.850;2023-04-19T08:50:05;81910.59;;;7.87;45.48
64711;BME280;51139;45.626;6.850;2023-04-19T08:52:36;81913.91;;;7.95;45.03
64711;BME280;51139;45.626;6.850;2023-04-19T08:55:06;81910.72;;;8.83;46.75
64711;BME280;51139;45.626;6.850;2023-04-19T08:57:32;81921.13;;;9.88;41.31
64711;BME280;51139;45.626;6.850;2023-04-19T08:59:58;81913.00;;;10.51;38.39
64711;BME280;51139;45.626;6.850;2023-04-19T09:02:24;81908.63;;;10.93;38.28
64711;BME280;51139;45.626;6.850;2023-04-19T09:04:50;81911.44;;;11.54;36.32
64711;BME280;51139;45.626;6.850;2023-04-19T09:07:25;81911.59;;;11.66;34.50
64711;BME280;51139;45.626;6.850;2023-04-19T09:10:07;81907.78;;;10.24;33.86
64711;BME280;51139;45.626;6.850;2023-04-19T09:12:33;81912.50;;;10.25;34.56
64711;BME280;51139;45.626;6.850;2023-04-19T09:15:00;81917.81;;;10.62;37.68
64711;BME280;51139;45.626;6.850;2023-04-19T09:17:28;81908.34;;;10.32;40.55
64711;BME280;51139;45.626;6.850;2023-04-19T09:19:53;81909.38;;;10.09;41.39
64711;BME280;51139;45.626;6.850;2023-04-19T09:22:18;81914.94;;;10.13;42.84
64711;BME280;51139;45.626;6.850;2023-04-19T09:24:44;81910.56;;;10.26;35.77
64711;BME280;51139;45.626;6.850;2023-04-19T09:27:09;81905.13;;;10.33;41.70
64711;BME280;51139;45.626;6.850;2023-04-19T09:29:36;81905.19;;;10.43;40.02
64711;BME280;51139;45.626;6.850;2023-04-19T09:32:02;81907.09;;;10.33;40.25
64711;BME280;51139;45.626;6.850;2023-04-19T09:34:28;81908.25;;;10.02;43.30
64711;BME280;51139;45.626;6.850;2023-04-19T09:36:55;81905.28;;;11.02;39.44
64711;BME280;51139;45.626;6.850;2023-04-19T09:39:33;81892.34;;;11.46;37.76
64711;BME280;51139;45.626;6.850;2023-04-19T09:42:00;81890.66;;;11.31;39.58
64711;BME280;51139;45.626;6.850;2023-04-19T09:44:26;81896.25;;;10.95;41.11
64711;BME280;51139;45.626;6.850;2023-04-19T09:46:52;81891.63;;;11.26;39.85
64711;BME280;51139;45.626;6.850;2023-04-19T09:49:21;81885.22;;;10.99;39.16
64711;BME280;51139;45.626;6.850;2023-04-19T09:51:49;81886.78;;;11.22;40.10
64711;BME280;51139;45.626;6.850;2023-04-19T09:54:17;81884.09;;;11.12;40.51
64711;BME280;51139;45.626;6.850;2023-04-19T09:56:44;81883.50;;;10.74;40.53
64711;BME280;51139;45.626;6.850;2023-04-19T09:59:10;81874.94;;;11.84;35.89
64711;BME280;51139;45.626;6.850;2023-04-19T10:01:53;81879.50;;;11.32;35.27
64711;BME280;51139;45.626;6.850;2023-04-19T10:04:19;81880.59;;;10.70;41.02
64711;BME280;51139;45.626;6.850;2023-04-19T10:06:49;81879.63;;;10.85;40.53
64711;BME280;51139;45.626;6.850;2023-04-19T10:09:17;81876.00;;;10.71;41.57
64711;BME280;51139;45.626;6.850;2023-04-19T10:11:46;81875.03;;;10.86;43.84
64711;BME280;51139;45.626;6.850;2023-04-19T10:14:14;81867.75;;;10.57;35.88
64711;BME280;51139;45.626;6.850;2023-04-19T10:16:39;81870.84;;;11.02;40.42
64711;BME280;51139;45.626;6.850;2023-04-19T10:19:10;81872.50;;;11.47;42.15
64711;BME280;51139;45.626;6.850;2023-04-19T10:21:36;81869.09;;;11.76;36.14
64711;BME280;51139;45.626;6.850;2023-04-19T10:24:03;81860.81;;;11.30;37.21
64711;BME280;51139;45.626;6.850;2023-04-19T10:26:29;81862.91;;;11.22;38.71
64711;BME280;51139;45.626;6.850;2023-04-19T10:28:54;81864.81;;;11.61;39.07
64711;BME280;51139;45.626;6.850;2023-04-19T10:31:24;81862.78;;;9.59;39.87
64711;BME280;51139;45.626;6.850;2023-04-19T10:33:51;81852.81;;;8.24;42.06
64711;BME280;51139;45.626;6.850;2023-04-19T10:36:17;81861.41;;;9.30;40.61
64711;BME280;51139;45.626;6.850;2023-04-19T10:38:50;81870.09;;;10.15;42.97
64711;BME280;51139;45.626;6.850;2023-04-19T10:41:20;81862.84;;;10.43;39.29
64711;BME280;51139;45.626;6.850;2023-04-19T10:48:56;81849.81;;;9.81;44.55
64711;BME280;51139;45.626;6.850;2023-04-19T10:51:26;81856.75;;;10.90;44.03
64711;BME280;51139;45.626;6.850;2023-04-19T10:54:01;81856.06;;;10.79;44.18
64711;BME280;51139;45.626;6.850;2023-04-19T11:07:05;81836.66;;;11.97;43.68
64711;BME280;51139;45.626;6.850;2023-04-19T11:09:37;81834.72;;;10.97;48.67
64711;BME280;51139;45.626;6.850;2023-04-19T11:12:05;81840.94;;;11.61;40.26
64711;BME280;51139;45.626;6.850;2023-04-19T11:14:36;81829.84;;;11.84;45.21
64711;BME280;51139;45.626;6.850;2023-04-19T11:17:13;81829.13;;;11.93;44.31
64711;BME280;51139;45.626;6.850;2023-04-19T11:20:02;81830.13;;;10.68;38.20
64711;BME280;51139;45.626;6.850;2023-04-19T11:25:11;81831.88;;;11.54;41.81
64711;BME280;51139;45.626;6.850;2023-04-19T11:27:38;81827.34;;;10.95;42.92
64711;BME280;51139;45.626;6.850;2023-04-19T11:30:12;81826.03;;;11.46;38.56
64711;BME280;51139;45.626;6.850;2023-04-19T11:32:46;81824.19;;;11.58;42.05
64711;BME280;51139;45.626;6.850;2023-04-19T11:35:12;81815.75;;;11.81;41.55
64711;BME280;51139;45.626;6.850;2023-04-19T11:37:38;81813.03;;;11.50;37.72
64711;BME280;51139;45.626;6.850;2023-04-19T11:40:05;81814.56;;;11.63;45.03
64711;BME280;51139;45.626;6.850;2023-04-19T11:42:31;81812.69;;;11.75;41.52
64711;BME280;51139;45.626;6.850;2023-04-19T11:44:57;81816.84;;;9.91;39.95
64711;BME280;51139;45.626;6.850;2023-04-19T11:47:24;81803.56;;;11.47;43.03
64711;BME280;51139;45.626;6.850;2023-04-19T11:49:50;81807.31;;;12.05;42.60
64711;BME280;51139;45.626;6.850;2023-04-19T11:52:20;81808.03;;;12.80;41.89
64711;BME280;51139;45.626;6.850;2023-04-19T11:54:46;81800.88;;;12.39;37.55
64711;BME280;51139;45.626;6.850;2023-04-19T11:57:12;81800.78;;;11.45;39.39
64711;BME280;51139;45.626;6.850;2023-04-19T11:59:38;81790.34;;;11.17;40.19
64711;BME280;51139;45.626;6.850;2023-04-19T12:02:12;81797.59;;;11.27;44.46
64711;BME280;51139;45.626;6.850;2023-04-19T12:04:40;81781.31;;;10.71;40.79
64711;BME280;51139;45.626;6.850;2023-04-19T12:07:05;81793.50;;;10.07;42.25
64711;BME280;51139;45.626;6.850;2023-04-19T12:09:33;81784.28;;;9.99;41.88
64711;BME280;51139;45.626;6.850;2023-04-19T12:11:59;81788.78;;;11.34;50.53
64711;BME280;51139;45.626;6.850;2023-04-19T12:14:24;81785.44;;;10.25;43.99
64711;BME280;51139;45.626;6.850;2023-04-19T12:17:10;81781.53;;;11.34;42.76
64711;BME280;51139;45.626;6.850;2023-04-19T12:19:40;81789.56;;;11.56;44.81
64711;BME280;51139;45.626;6.850;2023-04-19T12:22:16;81770.84;;;11.13;41.99
64711;BME280;51139;45.626;6.850;2023-04-19T12:24:44;81779.63;;;11.05;42.96
64711;BME280;51139;45.626;6.850;2023-04-19T12:27:10;81775.97;;;11.20;41.83
64711;BME280;51139;45.626;6.850;2023-04-19T12:29:36;81779.22;;;10.60;36.53
64711;BME280;51139;45.626;6.850;2023-04-19T12:32:02;81776.69;;;9.01;40.16
64711;BME280;51139;45.626;6.850;2023-04-19T12:34:27;81778.53;;;9.08;41.19
64711;BME280;51139;45.626;6.850;2023-04-19T12:36:53;81772.34;;;10.17;41.56
64711;BME280;51139;45.626;6.850;2023-04-19T12:39:19;81764.88;;;10.73;50.54
64711;BME280;51139;45.626;6.850;2023-04-19T12:41:44;81759.78;;;11.26;44.20
64711;BME280;51139;45.626;6.850;2023-04-19T12:44:12;81764.25;;;11.75;46.96
64711;BME280;51139;45.626;6.850;2023-04-19T12:46:37;81766.22;;;11.64;42.70
64711;BME280;51139;45.626;6.850;2023-04-19T12:49:03;81768.41;;;11.78;43.69
64711;BME280;51139;45.626;6.850;2023-04-19T12:51:29;81760.97;;;10.64;44.87
64711;BME280;51139;45.626;6.850;2023-04-19T12:53:54;81762.25;;;9.86;40.87
64711;BME280;51139;45.626;6.850;2023-04-19T12:56:20;81765.44;;;10.71;40.45
64711;BME280;51139;45.626;6.850;2023-04-19T12:58:45;81763.84;;;10.39;38.43
64711;BME280;51139;45.626;6.850;2023-04-19T13:01:10;81753.28;;;10.29;42.33
64711;BME280;51139;45.626;6.850;2023-04-19T13:03:36;81756.34;;;11.55;40.72
64711;BME280;51139;45.626;6.850;2023-04-19T13:06:04;81753.03;;;11.45;41.79
64711;BME280;51139;45.626;6.850;2023-04-19T13:08:30;81746.75;;;11.40;43.32
64711;BME280;51139;45.626;6.850;2023-04-19T13:10:57;81740.25;;;11.21;45.07
64711;BME280;51139;45.626;6.850;2023-04-19T13:13:26;81739.78;;;11.45;43.50
64711;BME280;51139;45.626;6.850;2023-04-19T13:15:52;81738.38;;;10.92;43.41
64711;BME280;51139;45.626;6.850;2023-04-19T13:18:18;81744.16;;;11.20;39.49
64711;BME280;51139;45.626;6.850;2023-04-19T13:20:43;81737.78;;;11.14;38.80